Terminal Aerodrome Forecast
Issued by NWS Charleston, WV

Current Version | Previous Version | Graphics & Text | Print | Product List | Glossary Off
Versions: 1 2 3 4 5 6 7 8 9 10 11 12 13 14 15 16 17 18 19 20 21 22 23

883
FTUS41 KRLX 010257 AAA
TAFCRW
TAF AMD
KCRW 010257Z 0103/0124 VRB04KT 6SM SHRA BR SCT001 OVC040
     FM010400 14007KT 4SM BR OVC020
     FM010600 17008KT 6SM SHRA BR OVC015
     FM011200 18006KT P6SM -SHRA OVC035
     FM011600 23007KT P6SM VCTS BKN040CB=

USA.gov is the U.S. government's official web portal to all federal, state and local government web resources and services.